Terminal Aerodrome Forecast
Issued by NWS Pueblo, CO

Home | Current Version | Previous Version | Text Only | Print | Product List | Glossary On
Versions: 1 2 3 4 5 6 7 8 9 10 11 12 13 14 15 16 17 18 19 20 21 22 23 24 25 26 27
000
FTUS45 KPUB 010523
TAFPUB
TAF
KPUB 010523Z 0106/0206 01010KT P6SM SCT040 OVC080
     FM011500 01015G30KT P6SM SCT030 OVC070
     FM012100 03015G25KT P6SM VCSH OVC040
     FM020100 04011KT P6SM VCSH OVC035=

USA.gov is the U.S. government's official web portal to all federal, state and local government web resources and services.